sensor_id;sensor_type;location;lat;lon;timestamp;temperature;humidity
16066;DHT22;8137;48.952;8.970;2023-05-16T00:01:13;11.50;99.90
16066;DHT22;8137;48.952;8.970;2023-05-16T00:03:41;11.50;99.90
16066;DHT22;8137;48.952;8.970;2023-05-16T00:06:07;11.50;99.90
16066;DHT22;8137;48.952;8.970;2023-05-16T00:08:34;11.50;99.90
16066;DHT22;8137;48.952;8.970;2023-05-16T00:10:59;11.50;99.90
16066;DHT22;8137;48.952;8.970;2023-05-16T00:13:26;11.50;99.90
16066;DHT22;8137;48.952;8.970;2023-05-16T00:15:52;11.50;99.90
16066;DHT22;8137;48.952;8.970;2023-05-16T00:18:20;11.50;99.90
16066;DHT22;8137;48.952;8.970;2023-05-16T00:20:51;11.50;99.90
16066;DHT22;8137;48.952;8.970;2023-05-16T00:23:17;11.50;99.90
16066;DHT22;8137;48.952;8.970;2023-05-16T00:25:43;11.50;99.90
16066;DHT22;8137;48.952;8.970;2023-05-16T00:28:09;11.50;99.90
16066;DHT22;8137;48.952;8.970;2023-05-16T00:30:35;11.50;99.90
16066;DHT22;8137;48.952;8.970;2023-05-16T00:33:00;11.50;99.90
16066;DHT22;8137;48.952;8.970;2023-05-16T00:35:26;11.50;99.90
16066;DHT22;8137;48.952;8.970;2023-05-16T00:37:52;11.50;99.90
16066;DHT22;8137;48.952;8.970;2023-05-16T00:40:18;11.60;99.90
16066;DHT22;8137;48.952;8.970;2023-05-16T00:42:43;11.50;99.90
16066;DHT22;8137;48.952;8.970;2023-05-16T00:45:09;11.50;99.90
16066;DHT22;8137;48.952;8.970;2023-05-16T00:47:35;11.50;99.90
16066;DHT22;8137;48.952;8.970;2023-05-16T00:50:02;11.50;99.90
16066;DHT22;8137;48.952;8.970;2023-05-16T00:52:28;11.50;99.90
16066;DHT22;8137;48.952;8.970;2023-05-16T00:54:55;11.50;99.90
16066;DHT22;8137;48.952;8.970;2023-05-16T00:57:21;11.50;99.90
16066;DHT22;8137;48.952;8.970;2023-05-16T00:59:47;11.40;99.90
16066;DHT22;8137;48.952;8.970;2023-05-16T01:02:13;11.40;99.90
16066;DHT22;8137;48.952;8.970;2023-05-16T01:04:39;11.40;99.90
16066;DHT22;8137;48.952;8.970;2023-05-16T01:07:04;11.40;99.90
16066;DHT22;8137;48.952;8.970;2023-05-16T01:09:30;11.40;99.90
16066;DHT22;8137;48.952;8.970;2023-05-16T01:12:22;11.40;99.90
16066;DHT22;8137;48.952;8.970;2023-05-16T01:15:12;11.40;99.90
16066;DHT22;8137;48.952;8.970;2023-05-16T01:17:44;11.40;99.90
16066;DHT22;8137;48.952;8.970;2023-05-16T01:26:22;11.50;99.90
16066;DHT22;8137;48.952;8.970;2023-05-16T01:28:50;11.40;99.90
16066;DHT22;8137;48.952;8.970;2023-05-16T01:31:16;11.40;99.90
16066;DHT22;8137;48.952;8.970;2023-05-16T01:33:42;11.30;99.90
16066;DHT22;8137;48.952;8.970;2023-05-16T01:38:55;11.30;99.90
16066;DHT22;8137;48.952;8.970;2023-05-16T01:41:28;11.30;99.90
16066;DHT22;8137;48.952;8.970;2023-05-16T01:43:59;11.30;99.90
16066;DHT22;8137;48.952;8.970;2023-05-16T01:46:30;11.30;99.90
16066;DHT22;8137;48.952;8.970;2023-05-16T01:51:55;11.30;99.90
16066;DHT22;8137;48.952;8.970;2023-05-16T01:54:24;11.30;99.90
16066;DHT22;8137;48.952;8.970;2023-05-16T01:56:53;11.30;99.90
16066;DHT22;8137;48.952;8.970;2023-05-16T01:59:20;11.30;99.90
16066;DHT22;8137;48.952;8.970;2023-05-16T02:01:47;11.30;99.90
16066;DHT22;8137;48.952;8.970;2023-05-16T02:04:12;11.30;99.90
16066;DHT22;8137;48.952;8.970;2023-05-16T02:06:40;11.30;99.90
16066;DHT22;8137;48.952;8.970;2023-05-16T02:09:06;11.30;99.90
16066;DHT22;8137;48.952;8.970;2023-05-16T02:11:31;11.30;99.90
16066;DHT22;8137;48.952;8.970;2023-05-16T02:13:57;11.20;99.90
16066;DHT22;8137;48.952;8.970;2023-05-16T02:16:23;11.30;99.90
16066;DHT22;8137;48.952;8.970;2023-05-16T02:18:48;11.20;99.90
16066;DHT22;8137;48.952;8.970;2023-05-16T02:21:14;11.20;99.90
16066;DHT22;8137;48.952;8.970;2023-05-16T02:23:39;11.20;99.90
16066;DHT22;8137;48.952;8.970;2023-05-16T02:26:05;11.30;99.90
16066;DHT22;8137;48.952;8.970;2023-05-16T02:28:31;11.30;99.90
16066;DHT22;8137;48.952;8.970;2023-05-16T02:30:58;11.30;99.90
16066;DHT22;8137;48.952;8.970;2023-05-16T02:33:25;11.30;99.90
16066;DHT22;8137;48.952;8.970;2023-05-16T02:35:52;11.30;99.90
16066;DHT22;8137;48.952;8.970;2023-05-16T02:38:17;11.30;99.90
16066;DHT22;8137;48.952;8.970;2023-05-16T02:40:48;11.30;99.90
16066;DHT22;8137;48.952;8.970;2023-05-16T02:43:13;11.30;99.90
16066;DHT22;8137;48.952;8.970;2023-05-16T02:45:39;11.20;99.90
16066;DHT22;8137;48.952;8.970;2023-05-16T02:48:05;11.20;99.90
16066;DHT22;8137;48.952;8.970;2023-05-16T02:50:32;11.20;99.90
16066;DHT22;8137;48.952;8.970;2023-05-16T02:52:58;11.20;99.90
16066;DHT22;8137;48.952;8.970;2023-05-16T02:55:27;11.20;99.90
16066;DHT22;8137;48.952;8.970;2023-05-16T02:57:53;11.20;99.90
16066;DHT22;8137;48.952;8.970;2023-05-16T03:00:19;11.20;99.90
16066;DHT22;8137;48.952;8.970;2023-05-16T03:02:45;11.20;99.90
16066;DHT22;8137;48.952;8.970;2023-05-16T03:05:11;11.20;99.90
16066;DHT22;8137;48.952;8.970;2023-05-16T03:07:37;11.20;99.90
16066;DHT22;8137;48.952;8.970;2023-05-16T03:10:03;11.10;99.90
16066;DHT22;8137;48.952;8.970;2023-05-16T03:12:29;11.10;99.90
16066;DHT22;8137;48.952;8.970;2023-05-16T03:14:55;11.10;99.90
16066;DHT22;8137;48.952;8.970;2023-05-16T03:17:20;11.20;99.90
16066;DHT22;8137;48.952;8.970;2023-05-16T03:19:46;11.20;99.90
16066;DHT22;8137;48.952;8.970;2023-05-16T03:22:11;11.20;99.90
16066;DHT22;8137;48.952;8.970;2023-05-16T03:24:37;11.20;99.90
16066;DHT22;8137;48.952;8.970;2023-05-16T03:27:03;11.20;99.90
16066;DHT22;8137;48.952;8.970;2023-05-16T03:29:29;11.10;99.90
16066;DHT22;8137;48.952;8.970;2023-05-16T03:31:55;11.20;99.90
16066;DHT22;8137;48.952;8.970;2023-05-16T03:34:21;11.10;99.90
16066;DHT22;8137;48.952;8.970;2023-05-16T03:36:50;11.10;99.90
16066;DHT22;8137;48.952;8.970;2023-05-16T03:39:16;11.10;99.90
16066;DHT22;8137;48.952;8.970;2023-05-16T03:41:42;11.10;99.90
16066;DHT22;8137;48.952;8.970;2023-05-16T03:44:08;11.10;99.90
16066;DHT22;8137;48.952;8.970;2023-05-16T03:46:34;11.10;99.90
16066;DHT22;8137;48.952;8.970;2023-05-16T03:49:00;11.10;99.90
16066;DHT22;8137;48.952;8.970;2023-05-16T03:51:25;11.10;99.90
16066;DHT22;8137;48.952;8.970;2023-05-16T03:53:52;11.00;99.90
16066;DHT22;8137;48.952;8.970;2023-05-16T03:56:18;11.10;99.90
16066;DHT22;8137;48.952;8.970;2023-05-16T03:58:44;11.10;99.90
16066;DHT22;8137;48.952;8.970;2023-05-16T04:01:09;11.10;99.90
16066;DHT22;8137;48.952;8.970;2023-05-16T04:03:35;11.10;99.90
16066;DHT22;8137;48.952;8.970;2023-05-16T04:06:02;11.10;99.90
16066;DHT22;8137;48.952;8.970;2023-05-16T04:08:28;11.10;99.90
16066;DHT22;8137;48.952;8.970;2023-05-16T04:10:54;11.10;99.90
16066;DHT22;8137;48.952;8.970;2023-05-16T04:13:20;11.00;99.90
16066;DHT22;8137;48.952;8.970;2023-05-16T04:15:45;11.10;99.90
16066;DHT22;8137;48.952;8.970;2023-05-16T04:18:12;11.10;99.90
16066;DHT22;8137;48.952;8.970;2023-05-16T04:20:37;11.10;99.90
16066;DHT22;8137;48.952;8.970;2023-05-16T04:23:03;11.10;99.90
16066;DHT22;8137;48.952;8.970;2023-05-16T04:25:29;11.10;99.90
16066;DHT22;8137;48.952;8.970;2023-05-16T04:27:55;11.10;99.90
16066;DHT22;8137;48.952;8.970;2023-05-16T04:30:21;11.10;99.90
16066;DHT22;8137;48.952;8.970;2023-05-16T04:32:47;11.20;99.90
16066;DHT22;8137;48.952;8.970;2023-05-16T04:35:12;11.20;99.90
16066;DHT22;8137;48.952;8.970;2023-05-16T04:37:38;11.20;99.90
16066;DHT22;8137;48.952;8.970;2023-05-16T04:40:04;11.20;99.90
16066;DHT22;8137;48.952;8.970;2023-05-16T04:42:32;11.30;99.90
16066;DHT22;8137;48.952;8.970;2023-05-16T04:44:57;11.30;99.90
16066;DHT22;8137;48.952;8.970;2023-05-16T04:47:23;11.30;99.90
16066;DHT22;8137;48.952;8.970;2023-05-16T04:49:48;11.30;99.90
16066;DHT22;8137;48.952;8.970;2023-05-16T04:52:14;11.30;99.90
16066;DHT22;8137;48.952;8.970;2023-05-16T04:54:40;11.40;99.90
16066;DHT22;8137;48.952;8.970;2023-05-16T04:57:05;11.40;99.90
16066;DHT22;8137;48.952;8.970;2023-05-16T04:59:31;11.40;99.90
16066;DHT22;8137;48.952;8.970;2023-05-16T05:01:56;11.50;99.90
16066;DHT22;8137;48.952;8.970;2023-05-16T05:04:22;11.50;99.90
16066;DHT22;8137;48.952;8.970;2023-05-16T05:06:48;11.60;99.90
16066;DHT22;8137;48.952;8.970;2023-05-16T05:09:13;11.70;99.90
16066;DHT22;8137;48.952;8.970;2023-05-16T05:11:39;11.70;99.90
16066;DHT22;8137;48.952;8.970;2023-05-16T05:14:04;11.70;99.90
16066;DHT22;8137;48.952;8.970;2023-05-16T05:16:30;11.70;99.90
16066;DHT22;8137;48.952;8.970;2023-05-16T05:18:56;11.70;99.90
16066;DHT22;8137;48.952;8.970;2023-05-16T05:21:21;11.80;99.90
16066;DHT22;8137;48.952;8.970;2023-05-16T05:23:49;11.80;99.90
16066;DHT22;8137;48.952;8.970;2023-05-16T05:26:15;11.80;99.90
16066;DHT22;8137;48.952;8.970;2023-05-16T05:28:41;11.80;99.90
16066;DHT22;8137;48.952;8.970;2023-05-16T05:31:07;11.80;99.90
16066;DHT22;8137;48.952;8.970;2023-05-16T05:33:32;11.80;99.90
16066;DHT22;8137;48.952;8.970;2023-05-16T05:35:58;11.80;99.90
16066;DHT22;8137;48.952;8.970;2023-05-16T05:38:24;11.80;99.90
16066;DHT22;8137;48.952;8.970;2023-05-16T05:40:50;11.80;99.90
16066;DHT22;8137;48.952;8.970;2023-05-16T05:43:15;11.80;99.90
16066;DHT22;8137;48.952;8.970;2023-05-16T05:45:42;11.80;99.90
16066;DHT22;8137;48.952;8.970;2023-05-16T05:48:08;11.90;99.90
16066;DHT22;8137;48.952;8.970;2023-05-16T05:50:35;11.80;99.90
16066;DHT22;8137;48.952;8.970;2023-05-16T05:53:01;11.90;99.90
16066;DHT22;8137;48.952;8.970;2023-05-16T05:55:26;11.90;99.90
16066;DHT22;8137;48.952;8.970;2023-05-16T05:57:52;11.90;99.90
16066;DHT22;8137;48.952;8.970;2023-05-16T06:00:17;11.90;99.90
16066;DHT22;8137;48.952;8.970;2023-05-16T06:02:43;11.90;99.90
16066;DHT22;8137;48.952;8.970;2023-05-16T06:05:09;11.90;99.90
16066;DHT22;8137;48.952;8.970;2023-05-16T06:07:34;11.90;99.90
16066;DHT22;8137;48.952;8.970;2023-05-16T06:10:00;11.90;99.90
16066;DHT22;8137;48.952;8.970;2023-05-16T06:12:28;11.90;99.90
16066;DHT22;8137;48.952;8.970;2023-05-16T06:14:54;12.00;99.90
16066;DHT22;8137;48.952;8.970;2023-05-16T06:17:20;11.90;99.90
16066;DHT22;8137;48.952;8.970;2023-05-16T06:19:46;11.90;99.90
16066;DHT22;8137;48.952;8.970;2023-05-16T06:22:12;12.00;99.90
16066;DHT22;8137;48.952;8.970;2023-05-16T06:24:37;11.90;99.90
16066;DHT22;8137;48.952;8.970;2023-05-16T06:27:03;11.90;99.90
16066;DHT22;8137;48.952;8.970;2023-05-16T06:29:29;11.90;99.90
16066;DHT22;8137;48.952;8.970;2023-05-16T06:31:54;12.00;99.90
16066;DHT22;8137;48.952;8.970;2023-05-16T06:34:20;12.00;99.90
16066;DHT22;8137;48.952;8.970;2023-05-16T06:36:51;11.90;99.90
16066;DHT22;8137;48.952;8.970;2023-05-16T06:39:17;11.90;99.90
16066;DHT22;8137;48.952;8.970;2023-05-16T06:41:43;11.90;99.90
16066;DHT22;8137;48.952;8.970;2023-05-16T06:44:09;11.90;99.90
16066;DHT22;8137;48.952;8.970;2023-05-16T06:46:35;11.90;99.90
16066;DHT22;8137;48.952;8.970;2023-05-16T06:49:02;11.90;99.90
16066;DHT22;8137;48.952;8.970;2023-05-16T06:51:28;11.90;99.90
16066;DHT22;8137;48.952;8.970;2023-05-16T06:53:53;12.00;99.90
16066;DHT22;8137;48.952;8.970;2023-05-16T06:56:19;12.10;99.90
16066;DHT22;8137;48.952;8.970;2023-05-16T06:58:45;12.20;99.90
16066;DHT22;8137;48.952;8.970;2023-05-16T07:01:11;12.20;99.90
16066;DHT22;8137;48.952;8.970;2023-05-16T07:03:37;12.20;99.90
16066;DHT22;8137;48.952;8.970;2023-05-16T07:06:03;12.30;99.90
16066;DHT22;8137;48.952;8.970;2023-05-16T07:08:28;12.50;99.90
16066;DHT22;8137;48.952;8.970;2023-05-16T07:10:54;12.60;99.90
16066;DHT22;8137;48.952;8.970;2023-05-16T07:13:19;12.60;99.90
16066;DHT22;8137;48.952;8.970;2023-05-16T07:15:45;12.70;99.90
16066;DHT22;8137;48.952;8.970;2023-05-16T07:18:11;12.60;99.90
16066;DHT22;8137;48.952;8.970;2023-05-16T07:20:36;12.50;99.90
16066;DHT22;8137;48.952;8.970;2023-05-16T07:23:02;12.50;99.90
16066;DHT22;8137;48.952;8.970;2023-05-16T07:25:28;12.50;99.90
16066;DHT22;8137;48.952;8.970;2023-05-16T07:27:54;12.50;99.90
16066;DHT22;8137;48.952;8.970;2023-05-16T07:30:19;12.40;99.90
16066;DHT22;8137;48.952;8.970;2023-05-16T07:32:45;12.40;99.90
16066;DHT22;8137;48.952;8.970;2023-05-16T07:35:11;12.40;99.90
16066;DHT22;8137;48.952;8.970;2023-05-16T07:37:37;12.50;99.90
16066;DHT22;8137;48.952;8.970;2023-05-16T07:40:06;12.50;99.90
16066;DHT22;8137;48.952;8.970;2023-05-16T07:42:32;12.50;99.90
16066;DHT22;8137;48.952;8.970;2023-05-16T07:44:58;12.50;99.90
16066;DHT22;8137;48.952;8.970;2023-05-16T07:47:23;12.60;99.90
16066;DHT22;8137;48.952;8.970;2023-05-16T07:49:49;12.60;99.90
16066;DHT22;8137;48.952;8.970;2023-05-16T07:52:14;12.70;99.90
16066;DHT22;8137;48.952;8.970;2023-05-16T07:54:40;12.60;99.90
16066;DHT22;8137;48.952;8.970;2023-05-16T07:57:06;12.60;99.90
16066;DHT22;8137;48.952;8.970;2023-05-16T07:59:31;12.60;99.90
16066;DHT22;8137;48.952;8.970;2023-05-16T08:01:57;12.50;99.90
16066;DHT22;8137;48.952;8.970;2023-05-16T08:04:22;12.40;99.90
16066;DHT22;8137;48.952;8.970;2023-05-16T08:06:48;12.40;99.90
16066;DHT22;8137;48.952;8.970;2023-05-16T08:09:14;12.40;99.90
16066;DHT22;8137;48.952;8.970;2023-05-16T08:11:39;12.40;99.90
16066;DHT22;8137;48.952;8.970;2023-05-16T08:14:05;12.40;99.90
16066;DHT22;8137;48.952;8.970;2023-05-16T08:16:31;12.50;99.90
16066;DHT22;8137;48.952;8.970;2023-05-16T08:18:56;12.60;99.90
16066;DHT22;8137;48.952;8.970;2023-05-16T08:21:22;12.70;99.90
16066;DHT22;8137;48.952;8.970;2023-05-16T08:23:48;12.80;99.90
16066;DHT22;8137;48.952;8.970;2023-05-16T08:26:15;12.90;99.90
16066;DHT22;8137;48.952;8.970;2023-05-16T08:28:42;13.10;99.90
16066;DHT22;8137;48.952;8.970;2023-05-16T08:31:07;13.20;99.90
16066;DHT22;8137;48.952;8.970;2023-05-16T08:33:33;13.40;99.90
16066;DHT22;8137;48.952;8.970;2023-05-16T08:35:59;13.60;99.90
16066;DHT22;8137;48.952;8.970;2023-05-16T08:38:25;13.60;99.90
16066;DHT22;8137;48.952;8.970;2023-05-16T08:40:50;13.70;99.90
16066;DHT22;8137;48.952;8.970;2023-05-16T08:43:16;13.70;99.90
16066;DHT22;8137;48.952;8.970;2023-05-16T08:45:42;13.70;99.90
16066;DHT22;8137;48.952;8.970;2023-05-16T08:48:09;13.60;99.90
16066;DHT22;8137;48.952;8.970;2023-05-16T08:50:35;13.40;99.90
16066;DHT22;8137;48.952;8.970;2023-05-16T08:53:04;13.50;99.90
16066;DHT22;8137;48.952;8.970;2023-05-16T08:55:32;13.40;99.90
16066;DHT22;8137;48.952;8.970;2023-05-16T08:57:57;13.40;99.90
16066;DHT22;8137;48.952;8.970;2023-05-16T09:00:25;13.40;99.90
16066;DHT22;8137;48.952;8.970;2023-05-16T09:02:52;13.50;99.90
16066;DHT22;8137;48.952;8.970;2023-05-16T09:05:17;13.60;99.90
16066;DHT22;8137;48.952;8.970;2023-05-16T09:07:44;13.50;99.90
16066;DHT22;8137;48.952;8.970;2023-05-16T09:10:10;13.40;99.90
16066;DHT22;8137;48.952;8.970;2023-05-16T09:12:37;13.30;99.90
16066;DHT22;8137;48.952;8.970;2023-05-16T09:15:04;13.30;99.90
16066;DHT22;8137;48.952;8.970;2023-05-16T09:17:51;13.20;99.90
16066;DHT22;8137;48.952;8.970;2023-05-16T09:20:19;13.10;99.90
16066;DHT22;8137;48.952;8.970;2023-05-16T09:22:54;13.10;99.90
16066;DHT22;8137;48.952;8.970;2023-05-16T09:25:21;13.10;99.90
16066;DHT22;8137;48.952;8.970;2023-05-16T09:27:48;13.10;99.90
16066;DHT22;8137;48.952;8.970;2023-05-16T09:30:27;13.10;99.90
16066;DHT22;8137;48.952;8.970;2023-05-16T09:32:52;13.00;99.90
16066;DHT22;8137;48.952;8.970;2023-05-16T09:35:22;13.00;99.90
16066;DHT22;8137;48.952;8.970;2023-05-16T09:37:49;13.10;99.90
16066;DHT22;8137;48.952;8.970;2023-05-16T09:40:22;13.10;99.90
16066;DHT22;8137;48.952;8.970;2023-05-16T09:43:04;13.20;99.90
16066;DHT22;8137;48.952;8.970;2023-05-16T09:45:31;13.30;99.90
16066;DHT22;8137;48.952;8.970;2023-05-16T09:48:04;13.40;99.90
16066;DHT22;8137;48.952;8.970;2023-05-16T09:50:35;13.40;99.90
16066;DHT22;8137;48.952;8.970;2023-05-16T09:53:02;13.60;99.90
16066;DHT22;8137;48.952;8.970;2023-05-16T09:55:29;13.70;99.90
16066;DHT22;8137;48.952;8.970;2023-05-16T09:57:55;13.70;99.90
16066;DHT22;8137;48.952;8.970;2023-05-16T10:00:21;13.70;99.90
16066;DHT22;8137;48.952;8.970;2023-05-16T10:02:48;13.80;99.90
16066;DHT22;8137;48.952;8.970;2023-05-16T10:05:15;14.00;99.90
16066;DHT22;8137;48.952;8.970;2023-05-16T10:07:43;14.20;99.90
16066;DHT22;8137;48.952;8.970;2023-05-16T10:10:10;14.20;99.90
16066;DHT22;8137;48.952;8.970;2023-05-16T10:12:37;14.10;99.90
16066;DHT22;8137;48.952;8.970;2023-05-16T10:15:04;14.20;99.90
16066;DHT22;8137;48.952;8.970;2023-05-16T10:17:34;14.20;99.90
16066;DHT22;8137;48.952;8.970;2023-05-16T10:20:03;14.10;99.90
16066;DHT22;8137;48.952;8.970;2023-05-16T10:22:35;14.40;99.90
16066;DHT22;8137;48.952;8.970;2023-05-16T10:27:50;14.70;99.90
16066;DHT22;8137;48.952;8.970;2023-05-16T10:30:17;14.40;99.90
16066;DHT22;8137;48.952;8.970;2023-05-16T10:32:44;14.20;99.90
16066;DHT22;8137;48.952;8.970;2023-05-16T10:35:10;13.90;99.90
16066;DHT22;8137;48.952;8.970;2023-05-16T10:37:36;13.70;99.90
16066;DHT22;8137;48.952;8.970;2023-05-16T10:40:03;13.60;99.90
16066;DHT22;8137;48.952;8.970;2023-05-16T10:42:33;13.50;99.90
16066;DHT22;8137;48.952;8.970;2023-05-16T10:45:15;13.40;99.90
16066;DHT22;8137;48.952;8.970;2023-05-16T10:47:56;13.30;99.90
16066;DHT22;8137;48.952;8.970;2023-05-16T10:50:41;13.10;99.90
16066;DHT22;8137;48.952;8.970;2023-05-16T10:53:20;13.20;99.90
16066;DHT22;8137;48.952;8.970;2023-05-16T11:01:27;13.10;99.90
16066;DHT22;8137;48.952;8.970;2023-05-16T11:06:26;13.40;99.90
16066;DHT22;8137;48.952;8.970;2023-05-16T11:09:05;13.50;99.90
16066;DHT22;8137;48.952;8.970;2023-05-16T11:11:58;13.60;99.90
16066;DHT22;8137;48.952;8.970;2023-05-16T11:14:44;13.60;99.90
16066;DHT22;8137;48.952;8.970;2023-05-16T11:17:22;13.90;99.90
16066;DHT22;8137;48.952;8.970;2023-05-16T11:19:49;14.00;99.90
16066;DHT22;8137;48.952;8.970;2023-05-16T11:24:53;14.20;99.90
16066;DHT22;8137;48.952;8.970;2023-05-16T11:27:23;14.50;99.90
16066;DHT22;8137;48.952;8.970;2023-05-16T11:29:50;14.50;99.90
16066;DHT22;8137;48.952;8.970;2023-05-16T11:32:19;14.50;99.90
16066;DHT22;8137;48.952;8.970;2023-05-16T11:34:46;14.50;99.90
16066;DHT22;8137;48.952;8.970;2023-05-16T11:37:13;14.50;99.90
16066;DHT22;8137;48.952;8.970;2023-05-16T11:39:40;14.40;99.90
16066;DHT22;8137;48.952;8.970;2023-05-16T11:42:05;14.40;99.90
16066;DHT22;8137;48.952;8.970;2023-05-16T11:44:31;14.20;99.90
16066;DHT22;8137;48.952;8.970;2023-05-16T11:46:57;14.10;99.90
16066;DHT22;8137;48.952;8.970;2023-05-16T11:49:24;14.10;99.90
16066;DHT22;8137;48.952;8.970;2023-05-16T11:51:53;14.00;99.90
16066;DHT22;8137;48.952;8.970;2023-05-16T11:54:19;14.00;99.90
16066;DHT22;8137;48.952;8.970;2023-05-16T11:56:45;13.90;99.90
16066;DHT22;8137;48.952;8.970;2023-05-16T11:59:11;13.80;99.90
16066;DHT22;8137;48.952;8.970;2023-05-16T12:01:38;13.70;99.90
16066;DHT22;8137;48.952;8.970;2023-05-16T12:04:11;13.60;99.90
16066;DHT22;8137;48.952;8.970;2023-05-16T12:06:38;13.40;99.90
16066;DHT22;8137;48.952;8.970;2023-05-16T12:09:04;13.10;99.90
16066;DHT22;8137;48.952;8.970;2023-05-16T12:11:40;13.00;99.90
16066;DHT22;8137;48.952;8.970;2023-05-16T12:14:07;12.90;99.90
16066;DHT22;8137;48.952;8.970;2023-05-16T12:16:35;12.80;99.90
16066;DHT22;8137;48.952;8.970;2023-05-16T12:19:02;12.90;99.90
16066;DHT22;8137;48.952;8.970;2023-05-16T12:21:30;13.10;99.90
16066;DHT22;8137;48.952;8.970;2023-05-16T12:23:56;13.10;99.90
16066;DHT22;8137;48.952;8.970;2023-05-16T12:26:27;13.20;99.90
16066;DHT22;8137;48.952;8.970;2023-05-16T12:28:56;13.20;99.90
16066;DHT22;8137;48.952;8.970;2023-05-16T12:31:25;13.10;99.90
16066;DHT22;8137;48.952;8.970;2023-05-16T12:33:54;12.90;99.90
16066;DHT22;8137;48.952;8.970;2023-05-16T12:36:21;12.70;99.90
16066;DHT22;8137;48.952;8.970;2023-05-16T12:38:47;12.50;99.90
16066;DHT22;8137;48.952;8.970;2023-05-16T12:41:20;12.40;99.90
16066;DHT22;8137;48.952;8.970;2023-05-16T12:43:46;12.40;99.90
16066;DHT22;8137;48.952;8.970;2023-05-16T12:46:12;12.40;99.90
16066;DHT22;8137;48.952;8.970;2023-05-16T12:48:37;12.40;99.90
16066;DHT22;8137;48.952;8.970;2023-05-16T12:51:15;12.40;99.90
16066;DHT22;8137;48.952;8.970;2023-05-16T12:56:08;12.40;99.90
16066;DHT22;8137;48.952;8.970;2023-05-16T12:58:35;12.40;99.90
16066;DHT22;8137;48.952;8.970;2023-05-16T13:01:01;12.50;99.90
16066;DHT22;8137;48.952;8.970;2023-05-16T13:03:28;12.50;99.90
16066;DHT22;8137;48.952;8.970;2023-05-16T13:05:56;12.60;99.90
16066;DHT22;8137;48.952;8.970;2023-05-16T13:08:22;12.60;99.90
16066;DHT22;8137;48.952;8.970;2023-05-16T13:10:47;12.60;99.90
16066;DHT22;8137;48.952;8.970;2023-05-16T13:13:13;12.70;99.90
16066;DHT22;8137;48.952;8.970;2023-05-16T13:15:39;12.90;99.90
16066;DHT22;8137;48.952;8.970;2023-05-16T13:18:06;12.90;99.90
16066;DHT22;8137;48.952;8.970;2023-05-16T13:20:32;13.10;99.90
16066;DHT22;8137;48.952;8.970;2023-05-16T13:22:58;13.30;99.90
16066;DHT22;8137;48.952;8.970;2023-05-16T13:25:23;13.60;99.90
16066;DHT22;8137;48.952;8.970;2023-05-16T13:27:49;14.00;99.90
16066;DHT22;8137;48.952;8.970;2023-05-16T13:30:14;13.90;99.90
16066;DHT22;8137;48.952;8.970;2023-05-16T13:32:40;14.00;99.90
16066;DHT22;8137;48.952;8.970;2023-05-16T13:35:07;14.20;99.90
16066;DHT22;8137;48.952;8.970;2023-05-16T13:37:32;14.10;99.90
16066;DHT22;8137;48.952;8.970;2023-05-16T13:39:58;14.10;99.90
16066;DHT22;8137;48.952;8.970;2023-05-16T13:42:24;14.20;99.90
16066;DHT22;8137;48.952;8.970;2023-05-16T13:44:49;14.50;99.90
16066;DHT22;8137;48.952;8.970;2023-05-16T13:47:15;14.60;99.90
16066;DHT22;8137;48.952;8.970;2023-05-16T13:49:41;14.60;99.90
16066;DHT22;8137;48.952;8.970;2023-05-16T13:52:06;14.60;99.90
16066;DHT22;8137;48.952;8.970;2023-05-16T13:54:35;14.70;99.90
16066;DHT22;8137;48.952;8.970;2023-05-16T13:57:00;14.90;99.90
16066;DHT22;8137;48.952;8.970;2023-05-16T13:59:27;15.20;99.90
16066;DHT22;8137;48.952;8.970;2023-05-16T14:01:53;15.10;99.90
16066;DHT22;8137;48.952;8.970;2023-05-16T14:04:18;15.20;99.90
16066;DHT22;8137;48.952;8.970;2023-05-16T14:06:44;15.00;99.90
16066;DHT22;8137;48.952;8.970;2023-05-16T14:09:10;15.00;99.90
16066;DHT22;8137;48.952;8.970;2023-05-16T14:11:37;15.00;99.90
16066;DHT22;8137;48.952;8.970;2023-05-16T14:14:02;15.00;99.90
16066;DHT22;8137;48.952;8.970;2023-05-16T14:16:29;14.80;99.90
16066;DHT22;8137;48.952;8.970;2023-05-16T14:18:55;14.90;99.90
16066;DHT22;8137;48.952;8.970;2023-05-16T14:21:21;14.90;99.90
16066;DHT22;8137;48.952;8.970;2023-05-16T14:23:46;14.70;99.90
16066;DHT22;8137;48.952;8.970;2023-05-16T14:26:13;14.70;99.90
16066;DHT22;8137;48.952;8.970;2023-05-16T14:28:38;14.70;99.90
16066;DHT22;8137;48.952;8.970;2023-05-16T14:31:04;14.80;99.90
16066;DHT22;8137;48.952;8.970;2023-05-16T14:33:30;14.80;99.90
16066;DHT22;8137;48.952;8.970;2023-05-16T14:35:57;14.90;99.90
16066;DHT22;8137;48.952;8.970;2023-05-16T14:38:22;14.90;99.90
16066;DHT22;8137;48.952;8.970;2023-05-16T14:40:48;14.80;99.90
16066;DHT22;8137;48.952;8.970;2023-05-16T14:43:14;14.50;99.90
16066;DHT22;8137;48.952;8.970;2023-05-16T14:45:40;14.60;99.90
16066;DHT22;8137;48.952;8.970;2023-05-16T14:48:06;14.60;99.90
16066;DHT22;8137;48.952;8.970;2023-05-16T14:50:32;14.60;99.90
16066;DHT22;8137;48.952;8.970;2023-05-16T14:52:58;14.60;99.90
16066;DHT22;8137;48.952;8.970;2023-05-16T14:55:23;14.50;99.90
16066;DHT22;8137;48.952;8.970;2023-05-16T14:57:49;14.50;99.90
16066;DHT22;8137;48.952;8.970;2023-05-16T15:00:15;14.40;99.90
16066;DHT22;8137;48.952;8.970;2023-05-16T15:02:42;14.30;99.90
16066;DHT22;8137;48.952;8.970;2023-05-16T15:05:08;14.30;99.90
16066;DHT22;8137;48.952;8.970;2023-05-16T15:07:33;14.30;99.90
16066;DHT22;8137;48.952;8.970;2023-05-16T15:09:59;14.20;99.90
16066;DHT22;8137;48.952;8.970;2023-05-16T15:12:25;14.10;99.90
16066;DHT22;8137;48.952;8.970;2023-05-16T15:14:50;14.00;99.90
16066;DHT22;8137;48.952;8.970;2023-05-16T15:17:16;13.90;99.90
16066;DHT22;8137;48.952;8.970;2023-05-16T15:19:41;13.90;99.90
16066;DHT22;8137;48.952;8.970;2023-05-16T15:22:07;13.90;99.90
16066;DHT22;8137;48.952;8.970;2023-05-16T15:24:35;13.90;99.90
16066;DHT22;8137;48.952;8.970;2023-05-16T15:27:01;13.90;99.90
16066;DHT22;8137;48.952;8.970;2023-05-16T15:29:28;13.90;99.90
16066;DHT22;8137;48.952;8.970;2023-05-16T15:31:53;13.90;99.90
16066;DHT22;8137;48.952;8.970;2023-05-16T15:34:19;14.00;99.90
16066;DHT22;8137;48.952;8.970;2023-05-16T15:36:45;14.00;99.90
16066;DHT22;8137;48.952;8.970;2023-05-16T15:39:10;14.10;99.90
16066;DHT22;8137;48.952;8.970;2023-05-16T15:41:36;14.00;99.90
16066;DHT22;8137;48.952;8.970;2023-05-16T15:44:01;14.00;99.90
16066;DHT22;8137;48.952;8.970;2023-05-16T15:46:27;14.10;99.90
16066;DHT22;8137;48.952;8.970;2023-05-16T15:48:54;14.20;99.90
16066;DHT22;8137;48.952;8.970;2023-05-16T15:51:20;14.10;99.90
16066;DHT22;8137;48.952;8.970;2023-05-16T15:53:46;14.20;99.90
16066;DHT22;8137;48.952;8.970;2023-05-16T15:56:12;14.30;99.90
16066;DHT22;8137;48.952;8.970;2023-05-16T15:58:37;14.20;99.90
16066;DHT22;8137;48.952;8.970;2023-05-16T16:01:03;14.10;99.90
16066;DHT22;8137;48.952;8.970;2023-05-16T16:03:29;14.10;99.90
16066;DHT22;8137;48.952;8.970;2023-05-16T16:05:54;14.10;99.90
16066;DHT22;8137;48.952;8.970;2023-05-16T16:08:20;14.10;99.90
16066;DHT22;8137;48.952;8.970;2023-05-16T16:10:46;14.10;99.90